Lakeview, Montana
Current Conditions -  °F | °C
As of 10:53 AM on Thursday 18 Dec 2014 (Local Time) from KRXE Reporting Station
Overcast Overcast  
Wind Chill: 30°   Ceiling: 3300
Heat Index: 30°   Visibility: 10mi
Dew Point: 29°   Wind: 3mph
Humidity: 96%   Direction: NA
Pressure: 30.13"   Gusts: NA
Location:  44.6°N, 111.81°W
Report Text: KRXE 181753Z AUTO VRB03KT 10SM OVC033 M01/M02 A3013 RMK AO2 SLP233 T10111017 11011 21028 53006
Loading
Personal Weather Stations






























Interactive Weather Map New forecast layout! Learn more

10-Day Weather Forecast

Advertisements
Track Severe Weather on mobile